sensor_id;sensor_type;location;lat;lon;timestamp;P1;durP1;ratioP1;P2;durP2;ratioP2
43682;SDS011;29285;52.128;21.060;2022-12-20T00:04:57;33.27;;;18.40;;
43682;SDS011;29285;52.128;21.060;2022-12-20T00:09:59;37.97;;;16.50;;
43682;SDS011;29285;52.128;21.060;2022-12-20T00:15:00;34.13;;;18.30;;
43682;SDS011;29285;52.128;21.060;2022-12-20T00:20:01;38.50;;;19.90;;
43682;SDS011;29285;52.128;21.060;2022-12-20T00:25:03;40.80;;;18.73;;
43682;SDS011;29285;52.128;21.060;2022-12-20T00:30:06;34.10;;;17.37;;
43682;SDS011;29285;52.128;21.060;2022-12-20T00:35:08;42.20;;;20.57;;
43682;SDS011;29285;52.128;21.060;2022-12-20T00:40:10;35.50;;;17.83;;
43682;SDS011;29285;52.128;21.060;2022-12-20T00:45:12;35.97;;;17.57;;
43682;SDS011;29285;52.128;21.060;2022-12-20T00:50:13;33.00;;;15.93;;
43682;SDS011;29285;52.128;21.060;2022-12-20T00:55:14;30.63;;;15.53;;
43682;SDS011;29285;52.128;21.060;2022-12-20T01:00:16;33.00;;;16.37;;
43682;SDS011;29285;52.128;21.060;2022-12-20T01:05:18;30.30;;;16.43;;
43682;SDS011;29285;52.128;21.060;2022-12-20T01:10:19;31.37;;;15.37;;
43682;SDS011;29285;52.128;21.060;2022-12-20T01:15:21;23.60;;;12.60;;
43682;SDS011;29285;52.128;21.060;2022-12-20T01:20:22;32.23;;;16.07;;
43682;SDS011;29285;52.128;21.060;2022-12-20T01:25:23;22.97;;;13.07;;
43682;SDS011;29285;52.128;21.060;2022-12-20T01:30:25;24.37;;;12.10;;
43682;SDS011;29285;52.128;21.060;2022-12-20T01:35:26;29.33;;;14.63;;
43682;SDS011;29285;52.128;21.060;2022-12-20T01:40:27;34.07;;;16.23;;
43682;SDS011;29285;52.128;21.060;2022-12-20T01:45:29;29.33;;;15.13;;
43682;SDS011;29285;52.128;21.060;2022-12-20T01:50:30;31.17;;;14.70;;
43682;SDS011;29285;52.128;21.060;2022-12-20T01:55:33;30.27;;;14.93;;
43682;SDS011;29285;52.128;21.060;2022-12-20T02:00:35;28.10;;;12.87;;
43682;SDS011;29285;52.128;21.060;2022-12-20T02:05:38;25.93;;;13.63;;
43682;SDS011;29285;52.128;21.060;2022-12-20T02:16:07;27.57;;;14.20;;
43682;SDS011;29285;52.128;21.060;2022-12-20T02:32:07;20.00;;;11.33;;
43682;SDS011;29285;52.128;21.060;2022-12-20T02:37:12;28.77;;;15.00;;
43682;SDS011;29285;52.128;21.060;2022-12-20T02:42:15;25.70;;;14.27;;
43682;SDS011;29285;52.128;21.060;2022-12-20T02:47:23;21.27;;;11.23;;
43682;SDS011;29285;52.128;21.060;2022-12-20T02:52:35;23.23;;;11.80;;
43682;SDS011;29285;52.128;21.060;2022-12-20T02:57:49;23.70;;;12.13;;
43682;SDS011;29285;52.128;21.060;2022-12-20T03:02:56;23.77;;;12.93;;
43682;SDS011;29285;52.128;21.060;2022-12-20T03:08:16;18.53;;;9.33;;
43682;SDS011;29285;52.128;21.060;2022-12-20T03:13:17;23.20;;;14.10;;
43682;SDS011;29285;52.128;21.060;2022-12-20T03:18:19;20.13;;;10.80;;
43682;SDS011;29285;52.128;21.060;2022-12-20T03:23:20;22.33;;;11.93;;
43682;SDS011;29285;52.128;21.060;2022-12-20T03:28:21;26.43;;;12.77;;
43682;SDS011;29285;52.128;21.060;2022-12-20T03:33:23;24.83;;;12.77;;
43682;SDS011;29285;52.128;21.060;2022-12-20T03:38:24;19.53;;;10.40;;
43682;SDS011;29285;52.128;21.060;2022-12-20T03:43:25;22.93;;;12.37;;
43682;SDS011;29285;52.128;21.060;2022-12-20T03:48:26;22.97;;;12.43;;
43682;SDS011;29285;52.128;21.060;2022-12-20T03:53:27;24.57;;;12.93;;
43682;SDS011;29285;52.128;21.060;2022-12-20T03:58:29;21.30;;;11.50;;
43682;SDS011;29285;52.128;21.060;2022-12-20T04:03:30;23.17;;;12.87;;
43682;SDS011;29285;52.128;21.060;2022-12-20T04:08:31;19.43;;;11.10;;
43682;SDS011;29285;52.128;21.060;2022-12-20T04:13:33;20.73;;;11.13;;
43682;SDS011;29285;52.128;21.060;2022-12-20T04:18:34;22.97;;;12.13;;
43682;SDS011;29285;52.128;21.060;2022-12-20T04:23:36;20.97;;;11.63;;
43682;SDS011;29285;52.128;21.060;2022-12-20T04:28:39;24.27;;;12.75;;
43682;SDS011;29285;52.128;21.060;2022-12-20T04:33:40;21.67;;;12.10;;
43682;SDS011;29285;52.128;21.060;2022-12-20T04:38:41;23.23;;;11.53;;
43682;SDS011;29285;52.128;21.060;2022-12-20T04:43:43;23.07;;;12.87;;
43682;SDS011;29285;52.128;21.060;2022-12-20T04:48:44;21.30;;;10.70;;
43682;SDS011;29285;52.128;21.060;2022-12-20T04:53:46;24.73;;;12.80;;
43682;SDS011;29285;52.128;21.060;2022-12-20T04:58:50;18.70;;;11.60;;
43682;SDS011;29285;52.128;21.060;2022-12-20T05:03:53;23.73;;;12.63;;
43682;SDS011;29285;52.128;21.060;2022-12-20T05:08:55;23.60;;;14.07;;
43682;SDS011;29285;52.128;21.060;2022-12-20T05:13:57;21.43;;;12.73;;
43682;SDS011;29285;52.128;21.060;2022-12-20T05:18:58;22.23;;;13.17;;
43682;SDS011;29285;52.128;21.060;2022-12-20T05:23:59;18.23;;;10.17;;
43682;SDS011;29285;52.128;21.060;2022-12-20T05:29:19;21.50;;;12.23;;
43682;SDS011;29285;52.128;21.060;2022-12-20T05:34:20;20.17;;;11.83;;
43682;SDS011;29285;52.128;21.060;2022-12-20T05:39:21;18.80;;;10.50;;
43682;SDS011;29285;52.128;21.060;2022-12-20T05:44:22;19.17;;;10.17;;
43682;SDS011;29285;52.128;21.060;2022-12-20T05:49:23;17.77;;;10.17;;
43682;SDS011;29285;52.128;21.060;2022-12-20T05:54:25;22.40;;;12.10;;
43682;SDS011;29285;52.128;21.060;2022-12-20T05:59:26;19.00;;;10.03;;
43682;SDS011;29285;52.128;21.060;2022-12-20T06:04:27;18.07;;;9.93;;
43682;SDS011;29285;52.128;21.060;2022-12-20T06:09:28;22.33;;;11.93;;
43682;SDS011;29285;52.128;21.060;2022-12-20T06:14:30;16.90;;;8.87;;
43682;SDS011;29285;52.128;21.060;2022-12-20T06:19:31;16.53;;;9.40;;
43682;SDS011;29285;52.128;21.060;2022-12-20T06:24:33;17.50;;;10.13;;
43682;SDS011;29285;52.128;21.060;2022-12-20T06:29:35;16.83;;;9.60;;
43682;SDS011;29285;52.128;21.060;2022-12-20T06:34:37;13.10;;;7.57;;
43682;SDS011;29285;52.128;21.060;2022-12-20T06:39:39;18.83;;;10.57;;
43682;SDS011;29285;52.128;21.060;2022-12-20T06:44:40;15.90;;;9.43;;
43682;SDS011;29285;52.128;21.060;2022-12-20T06:49:41;19.03;;;9.90;;
43682;SDS011;29285;52.128;21.060;2022-12-20T06:54:42;19.50;;;10.60;;
43682;SDS011;29285;52.128;21.060;2022-12-20T06:59:44;18.70;;;10.65;;
43682;SDS011;29285;52.128;21.060;2022-12-20T07:04:46;17.65;;;10.85;;
43682;SDS011;29285;52.128;21.060;2022-12-20T07:09:47;17.90;;;9.57;;
43682;SDS011;29285;52.128;21.060;2022-12-20T07:14:49;17.85;;;10.18;;
43682;SDS011;29285;52.128;21.060;2022-12-20T07:19:51;20.37;;;10.87;;
43682;SDS011;29285;52.128;21.060;2022-12-20T07:24:52;16.95;;;10.43;;
43682;SDS011;29285;52.128;21.060;2022-12-20T07:29:54;17.33;;;8.93;;
43682;SDS011;29285;52.128;21.060;2022-12-20T07:34:56;18.75;;;10.10;;
43682;SDS011;29285;52.128;21.060;2022-12-20T07:39:57;17.95;;;10.35;;
43682;SDS011;29285;52.128;21.060;2022-12-20T07:44:59;18.57;;;9.65;;
43682;SDS011;29285;52.128;21.060;2022-12-20T07:50:00;19.47;;;10.43;;
43682;SDS011;29285;52.128;21.060;2022-12-20T07:55:03;17.70;;;9.03;;
43682;SDS011;29285;52.128;21.060;2022-12-20T08:00:09;20.30;;;10.60;;
43682;SDS011;29285;52.128;21.060;2022-12-20T08:05:12;19.75;;;10.08;;
43682;SDS011;29285;52.128;21.060;2022-12-20T08:10:14;19.30;;;9.93;;
43682;SDS011;29285;52.128;21.060;2022-12-20T08:15:19;20.00;;;9.97;;
43682;SDS011;29285;52.128;21.060;2022-12-20T08:20:22;15.90;;;9.83;;
43682;SDS011;29285;52.128;21.060;2022-12-20T08:25:23;20.48;;;10.65;;
43682;SDS011;29285;52.128;21.060;2022-12-20T08:30:25;19.98;;;11.60;;
43682;SDS011;29285;52.128;21.060;2022-12-20T08:35:26;19.70;;;11.60;;
43682;SDS011;29285;52.128;21.060;2022-12-20T08:40:28;17.63;;;8.87;;
43682;SDS011;29285;52.128;21.060;2022-12-20T08:45:29;21.47;;;11.47;;
43682;SDS011;29285;52.128;21.060;2022-12-20T08:50:30;23.60;;;11.93;;
43682;SDS011;29285;52.128;21.060;2022-12-20T08:55:31;17.95;;;11.43;;
43682;SDS011;29285;52.128;21.060;2022-12-20T09:00:33;18.42;;;11.28;;
43682;SDS011;29285;52.128;21.060;2022-12-20T09:05:34;22.00;;;12.88;;
43682;SDS011;29285;52.128;21.060;2022-12-20T09:10:35;19.52;;;11.68;;
43682;SDS011;29285;52.128;21.060;2022-12-20T09:15:37;24.35;;;12.98;;
43682;SDS011;29285;52.128;21.060;2022-12-20T09:20:42;21.00;;;11.60;;
43682;SDS011;29285;52.128;21.060;2022-12-20T09:25:44;23.50;;;12.53;;
43682;SDS011;29285;52.128;21.060;2022-12-20T09:30:46;20.97;;;12.18;;
43682;SDS011;29285;52.128;21.060;2022-12-20T09:35:47;22.95;;;14.68;;
43682;SDS011;29285;52.128;21.060;2022-12-20T09:40:49;21.70;;;14.55;;
43682;SDS011;29285;52.128;21.060;2022-12-20T09:45:54;24.82;;;14.38;;
43682;SDS011;29285;52.128;21.060;2022-12-20T10:01:55;23.55;;;14.18;;
43682;SDS011;29285;52.128;21.060;2022-12-20T10:23:08;25.72;;;13.98;;
43682;SDS011;29285;52.128;21.060;2022-12-20T10:28:14;26.42;;;13.65;;
43682;SDS011;29285;52.128;21.060;2022-12-20T10:33:20;23.87;;;12.40;;
43682;SDS011;29285;52.128;21.060;2022-12-20T10:38:23;21.97;;;13.68;;
43682;SDS011;29285;52.128;21.060;2022-12-20T10:43:26;25.10;;;13.55;;
43682;SDS011;29285;52.128;21.060;2022-12-20T10:48:36;24.70;;;13.58;;
43682;SDS011;29285;52.128;21.060;2022-12-20T10:53:57;24.77;;;13.18;;
43682;SDS011;29285;52.128;21.060;2022-12-20T11:04:24;22.07;;;13.03;;
43682;SDS011;29285;52.128;21.060;2022-12-20T11:09:35;22.63;;;14.20;;
43682;SDS011;29285;52.128;21.060;2022-12-20T11:14:37;28.32;;;14.15;;
43682;SDS011;29285;52.128;21.060;2022-12-20T11:30:39;23.60;;;11.83;;
43682;SDS011;29285;52.128;21.060;2022-12-20T11:51:48;23.92;;;15.30;;
43682;SDS011;29285;52.128;21.060;2022-12-20T12:02:35;27.40;;;16.05;;
43682;SDS011;29285;52.128;21.060;2022-12-20T12:07:40;28.23;;;17.57;;
43682;SDS011;29285;52.128;21.060;2022-12-20T12:12:49;26.87;;;14.25;;
43682;SDS011;29285;52.128;21.060;2022-12-20T12:18:13;24.70;;;15.10;;
43682;SDS011;29285;52.128;21.060;2022-12-20T12:23:23;24.90;;;15.85;;
43682;SDS011;29285;52.128;21.060;2022-12-20T12:28:35;24.27;;;15.37;;
43682;SDS011;29285;52.128;21.060;2022-12-20T12:33:39;24.90;;;14.35;;
43682;SDS011;29285;52.128;21.060;2022-12-20T12:44:35;29.27;;;16.62;;
43682;SDS011;29285;52.128;21.060;2022-12-20T12:49:55;30.00;;;16.42;;
43682;SDS011;29285;52.128;21.060;2022-12-20T12:54:57;29.95;;;16.52;;
43682;SDS011;29285;52.128;21.060;2022-12-20T12:59:58;23.40;;;14.25;;
43682;SDS011;29285;52.128;21.060;2022-12-20T13:20:35;28.60;;;15.43;;
43682;SDS011;29285;52.128;21.060;2022-12-20T13:30:47;28.25;;;15.80;;
43682;SDS011;29285;52.128;21.060;2022-12-20T13:51:46;30.75;;;18.73;;
43682;SDS011;29285;52.128;21.060;2022-12-20T13:56:48;25.82;;;14.68;;
43682;SDS011;29285;52.128;21.060;2022-12-20T14:01:52;28.92;;;18.52;;
43682;SDS011;29285;52.128;21.060;2022-12-20T14:06:57;29.18;;;17.15;;
43682;SDS011;29285;52.128;21.060;2022-12-20T14:12:02;28.83;;;14.83;;
43682;SDS011;29285;52.128;21.060;2022-12-20T14:17:37;28.27;;;16.80;;
43682;SDS011;29285;52.128;21.060;2022-12-20T14:22:27;31.02;;;15.20;;
43682;SDS011;29285;52.128;21.060;2022-12-20T14:27:32;28.60;;;17.07;;
43682;SDS011;29285;52.128;21.060;2022-12-20T14:32:36;25.65;;;13.83;;
43682;SDS011;29285;52.128;21.060;2022-12-20T14:37:37;29.98;;;17.00;;
43682;SDS011;29285;52.128;21.060;2022-12-20T14:42:41;28.55;;;15.90;;
43682;SDS011;29285;52.128;21.060;2022-12-20T14:47:56;24.50;;;13.65;;
43682;SDS011;29285;52.128;21.060;2022-12-20T14:53:16;26.82;;;14.70;;
43682;SDS011;29285;52.128;21.060;2022-12-20T14:58:31;26.65;;;14.58;;
43682;SDS011;29285;52.128;21.060;2022-12-20T15:03:34;30.20;;;18.07;;
43682;SDS011;29285;52.128;21.060;2022-12-20T15:08:36;29.98;;;16.70;;
43682;SDS011;29285;52.128;21.060;2022-12-20T15:13:44;26.90;;;15.15;;
43682;SDS011;29285;52.128;21.060;2022-12-20T15:18:51;30.92;;;16.30;;
43682;SDS011;29285;52.128;21.060;2022-12-20T15:23:53;30.23;;;17.50;;
43682;SDS011;29285;52.128;21.060;2022-12-20T15:28:56;29.05;;;16.50;;
43682;SDS011;29285;52.128;21.060;2022-12-20T15:33:58;26.93;;;14.63;;
43682;SDS011;29285;52.128;21.060;2022-12-20T15:39:01;28.57;;;15.70;;
43682;SDS011;29285;52.128;21.060;2022-12-20T15:44:04;31.10;;;16.07;;
43682;SDS011;29285;52.128;21.060;2022-12-20T15:49:19;31.25;;;17.37;;
43682;SDS011;29285;52.128;21.060;2022-12-20T15:54:28;26.05;;;16.05;;
43682;SDS011;29285;52.128;21.060;2022-12-20T15:59:35;25.97;;;15.43;;
43682;SDS011;29285;52.128;21.060;2022-12-20T16:04:37;28.30;;;16.70;;
43682;SDS011;29285;52.128;21.060;2022-12-20T16:09:38;27.13;;;15.00;;
43682;SDS011;29285;52.128;21.060;2022-12-20T16:14:40;30.45;;;18.67;;
43682;SDS011;29285;52.128;21.060;2022-12-20T16:19:42;34.65;;;16.97;;
43682;SDS011;29285;52.128;21.060;2022-12-20T16:24:44;27.30;;;15.10;;
43682;SDS011;29285;52.128;21.060;2022-12-20T16:29:46;30.72;;;18.60;;
43682;SDS011;29285;52.128;21.060;2022-12-20T16:34:48;30.23;;;17.87;;
43682;SDS011;29285;52.128;21.060;2022-12-20T16:39:50;29.80;;;16.20;;
43682;SDS011;29285;52.128;21.060;2022-12-20T16:44:52;28.32;;;15.68;;
43682;SDS011;29285;52.128;21.060;2022-12-20T16:49:53;27.52;;;15.25;;
43682;SDS011;29285;52.128;21.060;2022-12-20T16:54:55;32.67;;;16.57;;
43682;SDS011;29285;52.128;21.060;2022-12-20T16:59:56;33.10;;;16.95;;
43682;SDS011;29285;52.128;21.060;2022-12-20T17:04:58;28.92;;;17.32;;
43682;SDS011;29285;52.128;21.060;2022-12-20T17:10:00;31.65;;;17.20;;
43682;SDS011;29285;52.128;21.060;2022-12-20T17:15:01;28.32;;;16.73;;
43682;SDS011;29285;52.128;21.060;2022-12-20T17:20:04;30.77;;;17.92;;
43682;SDS011;29285;52.128;21.060;2022-12-20T17:25:23;30.10;;;16.17;;
43682;SDS011;29285;52.128;21.060;2022-12-20T17:30:32;28.02;;;15.05;;
43682;SDS011;29285;52.128;21.060;2022-12-20T17:35:33;31.33;;;17.80;;
43682;SDS011;29285;52.128;21.060;2022-12-20T17:40:35;28.52;;;18.35;;
43682;SDS011;29285;52.128;21.060;2022-12-20T17:45:36;30.00;;;17.90;;
43682;SDS011;29285;52.128;21.060;2022-12-20T17:50:38;33.67;;;18.05;;
43682;SDS011;29285;52.128;21.060;2022-12-20T17:55:39;29.77;;;18.45;;
43682;SDS011;29285;52.128;21.060;2022-12-20T18:00:41;29.50;;;15.85;;
43682;SDS011;29285;52.128;21.060;2022-12-20T18:05:42;32.75;;;16.35;;
43682;SDS011;29285;52.128;21.060;2022-12-20T18:10:43;32.65;;;16.15;;
43682;SDS011;29285;52.128;21.060;2022-12-20T18:15:45;29.35;;;16.62;;
43682;SDS011;29285;52.128;21.060;2022-12-20T18:20:46;26.57;;;16.70;;
43682;SDS011;29285;52.128;21.060;2022-12-20T18:25:48;35.13;;;17.15;;
43682;SDS011;29285;52.128;21.060;2022-12-20T18:30:49;31.90;;;18.20;;
43682;SDS011;29285;52.128;21.060;2022-12-20T18:35:58;29.92;;;17.52;;
43682;SDS011;29285;52.128;21.060;2022-12-20T18:41:09;31.55;;;17.55;;
43682;SDS011;29285;52.128;21.060;2022-12-20T18:46:14;26.20;;;15.13;;
43682;SDS011;29285;52.128;21.060;2022-12-20T18:51:19;29.00;;;17.17;;
43682;SDS011;29285;52.128;21.060;2022-12-20T18:56:34;22.48;;;12.60;;
43682;SDS011;29285;52.128;21.060;2022-12-20T19:01:32;27.62;;;17.20;;
43682;SDS011;29285;52.128;21.060;2022-12-20T19:06:35;30.82;;;17.40;;
43682;SDS011;29285;52.128;21.060;2022-12-20T19:11:37;27.75;;;16.30;;
43682;SDS011;29285;52.128;21.060;2022-12-20T19:16:39;31.82;;;17.65;;
43682;SDS011;29285;52.128;21.060;2022-12-20T19:21:40;30.32;;;15.85;;
43682;SDS011;29285;52.128;21.060;2022-12-20T19:26:42;31.65;;;17.87;;
43682;SDS011;29285;52.128;21.060;2022-12-20T19:31:44;28.20;;;15.93;;
43682;SDS011;29285;52.128;21.060;2022-12-20T19:36:47;35.08;;;19.15;;
43682;SDS011;29285;52.128;21.060;2022-12-20T19:41:48;32.73;;;18.55;;
43682;SDS011;29285;52.128;21.060;2022-12-20T19:46:51;31.12;;;18.45;;
43682;SDS011;29285;52.128;21.060;2022-12-20T19:51:52;31.95;;;16.95;;
43682;SDS011;29285;52.128;21.060;2022-12-20T19:56:53;27.20;;;15.50;;
43682;SDS011;29285;52.128;21.060;2022-12-20T20:01:55;28.27;;;15.03;;
43682;SDS011;29285;52.128;21.060;2022-12-20T20:06:56;31.17;;;16.52;;
43682;SDS011;29285;52.128;21.060;2022-12-20T20:11:57;27.58;;;16.65;;
43682;SDS011;29285;52.128;21.060;2022-12-20T20:16:59;32.58;;;18.45;;
43682;SDS011;29285;52.128;21.060;2022-12-20T20:22:01;31.80;;;18.17;;
43682;SDS011;29285;52.128;21.060;2022-12-20T20:27:02;25.25;;;13.53;;
43682;SDS011;29285;52.128;21.060;2022-12-20T20:32:03;32.67;;;18.07;;
43682;SDS011;29285;52.128;21.060;2022-12-20T20:37:07;29.50;;;16.13;;
43682;SDS011;29285;52.128;21.060;2022-12-20T20:42:08;25.35;;;14.95;;
43682;SDS011;29285;52.128;21.060;2022-12-20T20:47:09;32.13;;;17.25;;
43682;SDS011;29285;52.128;21.060;2022-12-20T20:52:11;29.77;;;17.17;;
43682;SDS011;29285;52.128;21.060;2022-12-20T20:57:12;30.27;;;18.27;;
43682;SDS011;29285;52.128;21.060;2022-12-20T21:02:14;29.50;;;17.98;;
43682;SDS011;29285;52.128;21.060;2022-12-20T21:07:15;29.30;;;15.60;;
43682;SDS011;29285;52.128;21.060;2022-12-20T21:12:16;30.25;;;16.52;;
43682;SDS011;29285;52.128;21.060;2022-12-20T21:17:19;27.75;;;16.45;;
43682;SDS011;29285;52.128;21.060;2022-12-20T21:22:20;29.95;;;17.12;;
43682;SDS011;29285;52.128;21.060;2022-12-20T21:27:22;29.70;;;16.70;;
43682;SDS011;29285;52.128;21.060;2022-12-20T21:32:23;26.42;;;15.08;;
43682;SDS011;29285;52.128;21.060;2022-12-20T21:37:28;26.12;;;16.15;;
43682;SDS011;29285;52.128;21.060;2022-12-20T21:42:32;31.82;;;16.12;;
43682;SDS011;29285;52.128;21.060;2022-12-20T21:47:34;29.18;;;17.73;;
43682;SDS011;29285;52.128;21.060;2022-12-20T21:52:35;27.42;;;15.18;;
43682;SDS011;29285;52.128;21.060;2022-12-20T21:57:37;27.52;;;15.30;;
43682;SDS011;29285;52.128;21.060;2022-12-20T22:02:38;26.57;;;16.23;;
43682;SDS011;29285;52.128;21.060;2022-12-20T22:07:39;27.00;;;16.77;;
43682;SDS011;29285;52.128;21.060;2022-12-20T22:12:41;31.12;;;16.93;;
43682;SDS011;29285;52.128;21.060;2022-12-20T22:17:42;26.17;;;14.53;;
43682;SDS011;29285;52.128;21.060;2022-12-20T22:22:44;29.32;;;17.17;;
43682;SDS011;29285;52.128;21.060;2022-12-20T22:27:45;32.28;;;18.23;;
43682;SDS011;29285;52.128;21.060;2022-12-20T22:32:46;27.82;;;16.35;;
43682;SDS011;29285;52.128;21.060;2022-12-20T22:37:48;29.37;;;15.80;;
43682;SDS011;29285;52.128;21.060;2022-12-20T22:42:51;27.58;;;16.42;;
43682;SDS011;29285;52.128;21.060;2022-12-20T22:47:52;25.32;;;14.95;;
43682;SDS011;29285;52.128;21.060;2022-12-20T22:52:54;29.87;;;17.55;;
43682;SDS011;29285;52.128;21.060;2022-12-20T22:57:55;29.98;;;16.80;;
43682;SDS011;29285;52.128;21.060;2022-12-20T23:02:56;34.05;;;17.70;;
43682;SDS011;29285;52.128;21.060;2022-12-20T23:07:58;31.75;;;17.45;;
43682;SDS011;29285;52.128;21.060;2022-12-20T23:12:59;27.05;;;14.83;;
43682;SDS011;29285;52.128;21.060;2022-12-20T23:18:18;30.88;;;18.15;;
43682;SDS011;29285;52.128;21.060;2022-12-20T23:23:19;30.85;;;16.20;;
43682;SDS011;29285;52.128;21.060;2022-12-20T23:28:20;28.45;;;15.68;;
43682;SDS011;29285;52.128;21.060;2022-12-20T23:33:23;27.95;;;18.05;;
43682;SDS011;29285;52.128;21.060;2022-12-20T23:38:24;28.35;;;16.77;;
43682;SDS011;29285;52.128;21.060;2022-12-20T23:43:29;28.57;;;16.27;;
43682;SDS011;29285;52.128;21.060;2022-12-20T23:48:31;27.58;;;16.27;;
43682;SDS011;29285;52.128;21.060;2022-12-20T23:53:33;25.35;;;16.30;;
43682;SDS011;29285;52.128;21.060;2022-12-20T23:58:35;28.32;;;16.70;;
